createdAt,value
2018-04-19T00:00:26.341Z,0
2018-04-19T00:01:06.763Z,0
2018-04-19T00:01:47.112Z,0
2018-04-19T00:02:27.502Z,0
2018-04-19T00:03:07.909Z,0
2018-04-19T00:03:48.298Z,0
2018-04-19T00:04:28.730Z,0
2018-04-19T00:05:09.139Z,0
2018-04-19T00:05:49.496Z,0
2018-04-19T00:06:29.908Z,0
2018-04-19T00:07:10.284Z,0
2018-04-19T00:07:50.722Z,0
2018-04-19T00:08:31.110Z,0
2018-04-19T00:09:11.510Z,0
2018-04-19T00:09:51.968Z,0
2018-04-19T00:10:32.306Z,0
2018-04-19T00:11:12.700Z,0
2018-04-19T00:11:53.135Z,0
2018-04-19T00:12:33.531Z,0
2018-04-19T00:13:13.925Z,0
2018-04-19T00:13:54.432Z,0
2018-04-19T00:14:34.722Z,0
2018-04-19T00:15:15.175Z,0
2018-04-19T00:15:55.515Z,0
2018-04-19T00:16:35.870Z,0
2018-04-19T00:17:16.305Z,0
2018-04-19T00:17:56.752Z,0
2018-04-19T00:18:37.146Z,0
2018-04-19T00:19:17.511Z,0
2018-04-19T00:19:57.867Z,0
2018-04-19T00:20:38.335Z,0
2018-04-19T00:21:18.620Z,0
2018-04-19T00:21:59.052Z,0
2018-04-19T00:22:39.449Z,0
2018-04-19T00:23:19.826Z,0
2018-04-19T00:24:00.301Z,0
2018-04-19T00:24:40.624Z,0
2018-04-19T00:25:21.059Z,0
2018-04-19T00:26:01.501Z,0
2018-04-19T00:26:41.828Z,0
2018-04-19T00:27:22.209Z,0
2018-04-19T00:28:02.625Z,0
2018-04-19T00:28:43.043Z,0
2018-04-19T00:29:23.462Z,0
2018-04-19T00:30:03.859Z,0
2018-04-19T00:30:44.272Z,0
2018-04-19T00:31:24.724Z,0
2018-04-19T00:32:05.126Z,0
2018-04-19T00:32:45.458Z,0
2018-04-19T00:33:25.885Z,0
2018-04-19T00:34:06.317Z,0
2018-04-19T00:34:46.708Z,0
2018-04-19T00:35:27.096Z,0
2018-04-19T00:36:07.582Z,0
2018-04-19T00:36:47.993Z,0
2018-04-19T00:37:28.358Z,0
2018-04-19T00:38:08.667Z,0
2018-04-19T00:38:49.156Z,0
2018-04-19T00:39:29.601Z,0
2018-04-19T00:40:09.921Z,0
2018-04-19T00:40:50.387Z,0
2018-04-19T00:41:30.757Z,0
2018-04-19T00:42:11.145Z,0
2018-04-19T00:42:51.570Z,0
2018-04-19T00:43:31.948Z,0
2018-04-19T00:44:12.406Z,0
2018-04-19T00:44:52.744Z,0
2018-04-19T00:45:33.120Z,0
2018-04-19T00:46:13.581Z,0
2018-04-19T00:46:54.018Z,0
2018-04-19T00:47:34.359Z,0
2018-04-19T00:48:14.761Z,0
2018-04-19T00:48:55.139Z,0
2018-04-19T00:49:35.619Z,0
2018-04-19T00:50:16.089Z,0
2018-04-19T00:50:56.392Z,0
2018-04-19T00:51:36.899Z,0
2018-04-19T00:52:17.290Z,0
2018-04-19T00:52:57.614Z,0
2018-04-19T00:53:38.058Z,0
2018-04-19T00:54:18.423Z,0
2018-04-19T00:54:58.844Z,0
2018-04-19T00:55:39.247Z,0
2018-04-19T00:56:19.588Z,0
2018-04-19T00:57:00.016Z,0
2018-04-19T00:57:40.396Z,0
2018-04-19T00:58:20.807Z,0
2018-04-19T00:59:01.218Z,0
2018-04-19T00:59:41.590Z,0
2018-04-19T01:00:22.046Z,0
2018-04-19T01:01:02.452Z,0
2018-04-19T01:01:42.841Z,0
2018-04-19T01:02:23.273Z,0
2018-04-19T01:03:03.668Z,0
2018-04-19T01:03:44.122Z,0
2018-04-19T01:04:24.500Z,0
2018-04-19T01:05:04.955Z,0
2018-04-19T01:05:45.400Z,0
2018-04-19T01:06:25.787Z,0
2018-04-19T01:07:06.149Z,0
2018-04-19T01:07:46.549Z,0
2018-04-19T01:08:27.046Z,0
2018-04-19T01:09:07.451Z,0
2018-04-19T01:09:47.898Z,0
2018-04-19T01:10:28.418Z,0
2018-04-19T01:11:08.742Z,0
2018-04-19T01:11:49.168Z,0
2018-04-19T01:12:29.592Z,0
2018-04-19T01:13:10.017Z,0
2018-04-19T01:13:50.533Z,0
2018-04-19T01:14:30.858Z,0
2018-04-19T01:15:11.376Z,0
2018-04-19T01:15:51.771Z,0
2018-04-19T01:16:32.219Z,0
2018-04-19T01:17:12.569Z,0
2018-04-19T01:17:52.954Z,0
2018-04-19T01:18:33.338Z,0
2018-04-19T01:19:13.829Z,0
2018-04-19T01:19:54.120Z,0
2018-04-19T01:20:34.507Z,0
2018-04-19T01:21:14.909Z,0
2018-04-19T01:21:55.285Z,0
2018-04-19T01:22:35.721Z,0
2018-04-19T01:23:16.120Z,0
2018-04-19T01:23:56.513Z,0
2018-04-19T01:24:36.885Z,0
2018-04-19T01:25:17.204Z,0
2018-04-19T01:25:57.680Z,0
2018-04-19T01:26:38.029Z,0
2018-04-19T01:27:18.456Z,0
2018-04-19T01:27:58.821Z,0
2018-04-19T01:28:39.237Z,0
2018-04-19T01:29:19.667Z,0
2018-04-19T01:30:00.032Z,0
2018-04-19T01:30:40.397Z,0
2018-04-19T01:31:20.865Z,0
2018-04-19T01:32:01.188Z,0
2018-04-19T01:32:41.657Z,0
2018-04-19T01:33:22.078Z,0
2018-04-19T01:34:02.462Z,0
2018-04-19T01:34:42.848Z,0
2018-04-19T01:35:23.275Z,0
2018-04-19T01:36:03.664Z,0
2018-04-19T01:36:44.017Z,0
2018-04-19T01:37:24.438Z,0
2018-04-19T01:39:52.310Z,0
2018-04-19T01:40:32.591Z,0
2018-04-19T01:41:12.875Z,0
2018-04-19T01:41:53.331Z,0
2018-04-19T01:42:33.630Z,0
2018-04-19T01:43:14.137Z,0
2018-04-19T01:43:54.495Z,0
2018-04-19T01:44:34.862Z,0
2018-04-19T01:45:15.306Z,0
2018-04-19T01:45:55.725Z,0
2018-04-19T01:46:36.029Z,0
2018-04-19T01:47:16.400Z,0
2018-04-19T01:47:56.808Z,0
2018-04-19T01:48:37.247Z,0
2018-04-19T01:49:17.646Z,0
2018-04-19T01:49:58.037Z,0
2018-04-19T01:50:38.485Z,0
2018-04-19T01:51:18.826Z,0
2018-04-19T01:51:59.238Z,0
2018-04-19T01:52:39.708Z,0
2018-04-19T01:53:20.037Z,0
2018-04-19T01:54:00.483Z,0
2018-04-19T01:54:40.836Z,0
2018-04-19T01:55:21.298Z,0
2018-04-19T01:56:01.615Z,0
2018-04-19T01:56:42.028Z,0
2018-04-19T01:57:22.421Z,0
2018-04-19T01:58:02.757Z,0
2018-04-19T01:58:43.131Z,0
2018-04-19T01:59:23.612Z,0
2018-04-19T02:00:03.920Z,0
2018-04-19T02:00:44.304Z,0
2018-04-19T02:01:24.670Z,0
2018-04-19T02:02:05.016Z,0
2018-04-19T02:02:45.398Z,0
2018-04-19T02:04:42.898Z,0
2018-04-19T02:05:23.328Z,0
2018-04-19T02:06:03.619Z,0
2018-04-19T02:06:44.014Z,0
2018-04-19T02:07:24.468Z,0
2018-04-19T02:08:04.959Z,0
2018-04-19T02:08:45.295Z,0
2018-04-19T02:09:25.745Z,0
2018-04-19T02:10:06.113Z,0
2018-04-19T02:10:46.509Z,0
2018-04-19T02:11:26.871Z,0
2018-04-19T02:12:07.299Z,0
2018-04-19T02:12:47.717Z,0
2018-04-19T02:13:28.108Z,0
2018-04-19T02:14:08.504Z,0
2018-04-19T02:14:48.909Z,0
2018-04-19T02:15:29.351Z,0
2018-04-19T02:16:09.727Z,0
2018-04-19T02:16:50.136Z,0
2018-04-19T02:17:30.556Z,0
2018-04-19T02:18:10.954Z,0
2018-04-19T02:18:51.363Z,0
2018-04-19T02:19:31.722Z,0
2018-04-19T02:20:12.237Z,0
2018-04-19T02:20:52.499Z,0
2018-04-19T02:21:32.931Z,0
2018-04-19T02:22:13.249Z,0
2018-04-19T02:22:53.641Z,0
2018-04-19T02:23:34.097Z,0
2018-04-19T02:24:14.448Z,0
2018-04-19T02:24:54.908Z,0
2018-04-19T02:25:35.242Z,0
2018-04-19T02:26:15.660Z,0
2018-04-19T02:26:56.046Z,0
2018-04-19T02:27:36.487Z,0
2018-04-19T02:28:16.883Z,0
2018-04-19T02:28:57.344Z,0
2018-04-19T02:29:37.719Z,0
2018-04-19T02:30:18.090Z,0
2018-04-19T02:30:58.441Z,0
2018-04-19T02:31:39.020Z,0
2018-04-19T02:32:19.358Z,0
2018-04-19T02:32:59.752Z,0
2018-04-19T02:33:40.137Z,0
2018-04-19T02:34:20.509Z,0
2018-04-19T02:35:00.929Z,0
2018-04-19T02:35:41.399Z,0
2018-04-19T02:36:21.722Z,0
2018-04-19T02:37:02.178Z,0
2018-04-19T02:37:42.587Z,0
2018-04-19T02:38:22.950Z,0
2018-04-19T02:39:03.390Z,0
2018-04-19T02:39:43.799Z,0
2018-04-19T02:40:24.265Z,0
2018-04-19T02:41:04.681Z,0
2018-04-19T02:41:45.071Z,0
2018-04-19T02:42:25.471Z,0
2018-04-19T02:43:05.906Z,0
2018-04-19T02:43:46.269Z,0
2018-04-19T02:44:26.671Z,0
2018-04-19T02:45:07.072Z,0
2018-04-19T02:45:47.508Z,0
2018-04-19T02:46:27.927Z,0
2018-04-19T02:47:08.252Z,0
2018-04-19T02:47:48.751Z,0
2018-04-19T02:48:29.030Z,0
2018-04-19T02:49:09.434Z,0
2018-04-19T02:49:49.873Z,0
2018-04-19T02:50:30.440Z,0
2018-04-19T02:51:10.639Z,0
2018-04-19T02:53:44.424Z,0
2018-04-19T02:54:24.797Z,0
2018-04-19T02:55:05.198Z,0
2018-04-19T02:55:45.654Z,0
2018-04-19T02:56:26.031Z,0
2018-04-19T02:57:06.489Z,0
2018-04-19T02:57:46.801Z,0
2018-04-19T02:58:27.238Z,0
2018-04-19T02:59:07.735Z,0
2018-04-19T02:59:48.134Z,0
2018-04-19T03:00:28.514Z,0
2018-04-19T03:01:08.949Z,0
2018-04-19T03:01:49.383Z,0
2018-04-19T03:02:29.687Z,0
2018-04-19T03:03:10.077Z,0
2018-04-19T03:03:50.477Z,0
2018-04-19T03:04:30.888Z,0
2018-04-19T03:05:11.336Z,0
2018-04-19T03:05:51.713Z,0
2018-04-19T03:06:32.108Z,0
2018-04-19T03:07:12.499Z,0
2018-04-19T03:07:52.905Z,0
2018-04-19T03:08:33.329Z,0
2018-04-19T03:09:13.768Z,0
2018-04-19T03:09:54.168Z,0
2018-04-19T03:10:34.657Z,0
2018-04-19T03:11:14.970Z,0
2018-04-19T03:11:55.430Z,0
2018-04-19T03:12:35.786Z,0
2018-04-19T03:13:16.192Z,0
2018-04-19T03:13:56.623Z,0
2018-04-19T03:14:37.031Z,0
2018-04-19T03:15:17.446Z,0
2018-04-19T03:15:57.993Z,0
2018-04-19T03:16:38.320Z,0
2018-04-19T03:17:18.776Z,0
2018-04-19T03:17:59.108Z,0
2018-04-19T03:18:39.536Z,0
2018-04-19T03:19:19.957Z,0
2018-04-19T03:20:00.355Z,0
2018-04-19T03:20:40.722Z,0
2018-04-19T03:21:21.055Z,0
2018-04-19T03:22:01.603Z,0
2018-04-19T03:22:41.892Z,0
2018-04-19T03:23:22.254Z,0
2018-04-19T03:24:02.770Z,0
2018-04-19T03:24:43.124Z,0
2018-04-19T03:25:23.552Z,0
2018-04-19T03:26:03.962Z,0
2018-04-19T03:26:44.339Z,0
2018-04-19T03:27:24.702Z,0
2018-04-19T03:28:05.193Z,0
2018-04-19T03:28:45.638Z,0
2018-04-19T03:29:25.904Z,0
2018-04-19T03:30:06.281Z,0
2018-04-19T03:30:46.924Z,0
2018-04-19T03:31:27.205Z,0
2018-04-19T03:32:07.655Z,0
2018-04-19T03:32:47.968Z,0
2018-04-19T03:33:28.469Z,0
2018-04-19T03:34:08.810Z,0
2018-04-19T03:34:49.318Z,0
2018-04-19T03:35:29.646Z,0
2018-04-19T03:36:10.043Z,0
2018-04-19T03:36:50.375Z,0
2018-04-19T03:37:30.910Z,0
2018-04-19T03:38:11.226Z,0
2018-04-19T03:38:51.668Z,0
2018-04-19T03:39:32.085Z,0
2018-04-19T03:40:12.418Z,0
2018-04-19T03:40:52.936Z,0
2018-04-19T03:41:33.252Z,0
2018-04-19T03:42:13.688Z,0
2018-04-19T03:42:54.063Z,0
2018-04-19T03:43:34.579Z,0
2018-04-19T03:44:14.835Z,0
2018-04-19T03:44:55.230Z,0
2018-04-19T03:45:35.680Z,0
2018-04-19T03:46:16.102Z,0
2018-04-19T03:46:56.486Z,0
2018-04-19T03:47:36.984Z,0
2018-04-19T03:48:17.337Z,0
2018-04-19T03:48:57.744Z,0
2018-04-19T03:49:38.190Z,0
2018-04-19T03:50:18.600Z,0
2018-04-19T03:50:59.071Z,0
2018-04-19T03:51:39.456Z,0
2018-04-19T03:52:19.915Z,0
2018-04-19T03:53:00.346Z,0
2018-04-19T03:53:40.651Z,0
2018-04-19T03:54:21.144Z,0
2018-04-19T03:55:01.564Z,0
2018-04-19T03:55:42.005Z,0
2018-04-19T03:56:22.416Z,0
2018-04-19T03:57:02.854Z,0
2018-04-19T03:57:43.279Z,4
2018-04-19T03:58:23.764Z,4
2018-04-19T03:59:04.114Z,0
2018-04-19T03:59:44.499Z,0
2018-04-19T04:00:25.018Z,4
2018-04-19T04:01:05.396Z,4
2018-04-19T04:01:45.790Z,0
2018-04-19T04:02:26.359Z,4
2018-04-19T04:03:06.644Z,4
2018-04-19T04:41:17.315Z,264
2018-04-19T04:41:57.773Z,284
2018-04-19T04:42:38.002Z,300
2018-04-19T04:43:18.562Z,320
2018-04-19T04:43:58.864Z,344
2018-04-19T04:44:39.407Z,372
2018-04-19T04:45:19.777Z,392
2018-04-19T04:46:00.166Z,420
2018-04-19T04:46:40.494Z,452
2018-04-19T04:47:21.012Z,480
2018-04-19T04:48:01.363Z,556
2018-04-19T04:48:41.794Z,608
2018-04-19T04:49:22.288Z,668
2018-04-19T04:50:02.797Z,720
2018-04-19T04:50:43.076Z,728
2018-04-19T04:51:23.558Z,836
2018-04-19T04:52:03.971Z,904
2018-04-19T04:52:44.271Z,956
2018-04-19T04:53:24.686Z,1028
2018-04-19T04:54:05.124Z,1156
2018-04-19T04:54:45.496Z,1224
2018-04-19T04:55:25.840Z,1252
2018-04-19T04:56:06.314Z,1404
2018-04-19T04:56:46.762Z,1416
2018-04-19T04:57:27.265Z,1516
2018-04-19T04:58:07.595Z,1612
2018-04-19T04:58:48.055Z,1620
2018-04-19T04:59:28.462Z,1840
2018-04-19T05:00:08.961Z,1932
2018-04-19T05:00:49.285Z,2140
2018-04-19T05:01:29.753Z,2252
2018-04-19T05:02:10.127Z,2336
2018-04-19T05:02:50.519Z,2416
2018-04-19T05:03:30.886Z,2644
2018-04-19T05:04:11.308Z,2788
2018-04-19T05:04:51.785Z,2892
2018-04-19T05:05:32.204Z,3096
2018-04-19T05:06:12.500Z,3228
2018-04-19T05:06:52.967Z,3444
2018-04-19T05:07:33.302Z,3728
2018-04-19T05:08:13.707Z,3932
2018-04-19T05:08:54.203Z,4232
2018-04-19T05:09:34.534Z,4296
2018-04-19T05:10:14.993Z,4492
2018-04-19T05:10:55.309Z,4844
2018-04-19T05:11:35.703Z,4960
2018-04-19T05:12:16.195Z,5296
2018-04-19T05:12:56.565Z,5724
2018-04-19T05:13:36.966Z,5964
2018-04-19T05:14:17.304Z,5956
2018-04-19T05:14:57.761Z,6280
2018-04-19T05:15:38.166Z,6820
2018-04-19T05:16:18.613Z,6684
2018-04-19T05:16:59.060Z,7132
2018-04-19T05:17:39.400Z,7068
2018-04-19T05:18:19.851Z,7640
2018-04-19T05:19:00.331Z,7744
2018-04-19T05:19:40.746Z,8060
2018-04-19T05:20:21.181Z,8156
2018-04-19T05:21:01.564Z,8440
2018-04-19T05:21:41.972Z,8484
2018-04-19T05:22:22.367Z,8928
2018-04-19T05:23:02.766Z,8944
2018-04-19T05:23:43.156Z,9040
2018-04-19T05:24:23.589Z,9212
2018-04-19T05:25:03.973Z,9216
2018-04-19T05:25:44.411Z,9308
2018-04-19T05:26:24.838Z,9508
2018-04-19T05:27:05.254Z,9464
2018-04-19T05:27:46.019Z,9348
2018-04-19T05:28:26.389Z,9832
2018-04-19T05:29:06.834Z,10168
2018-04-19T05:29:47.206Z,10592
2018-04-19T05:30:27.680Z,11072
2018-04-19T05:31:07.977Z,11712
2018-04-19T05:31:48.414Z,12352
2018-04-19T05:32:28.885Z,12512
2018-04-19T05:33:09.261Z,12832
2018-04-19T05:33:51.510Z,13024
2018-04-19T05:34:30.662Z,13216
2018-04-19T05:35:11.116Z,13472
2018-04-19T05:35:51.491Z,13600
2018-04-19T05:36:31.898Z,13824
2018-04-19T05:37:12.333Z,13824
2018-04-19T05:37:52.753Z,13824
2018-04-19T05:38:33.278Z,13984
2018-04-19T05:39:13.692Z,14656
2018-04-19T05:39:54.123Z,15104
2018-04-19T05:40:34.666Z,15008
2018-04-19T05:41:15.019Z,15616
2018-04-19T05:41:55.432Z,16000
2018-04-19T05:42:36.067Z,16288
2018-04-19T05:43:16.455Z,16480
2018-04-19T05:43:56.896Z,16256
2018-04-19T05:44:37.292Z,16832
2018-04-19T05:45:17.709Z,17408
2018-04-19T05:45:58.153Z,18080
2018-04-19T05:46:43.575Z,18560
2018-04-19T05:47:24.188Z,19040
2018-04-19T05:48:04.633Z,19136
2018-04-19T05:48:45.046Z,19648
2018-04-19T05:49:25.542Z,19904
2018-04-19T05:50:05.847Z,20160
2018-04-19T05:50:46.330Z,19968
2018-04-19T05:51:27.408Z,19648
2018-04-19T05:52:07.822Z,19392
2018-04-19T05:52:48.381Z,19200
2018-04-19T05:53:28.891Z,19776
2018-04-19T05:54:09.320Z,20480
2018-04-19T05:54:49.721Z,20928
2018-04-19T05:55:30.090Z,21920
2018-04-19T05:56:10.532Z,22592
2018-04-19T05:56:51.048Z,22208
2018-04-19T05:57:31.563Z,22016
2018-04-19T05:58:12.072Z,22368
2018-04-19T05:58:52.844Z,22528
2018-04-19T05:59:33.240Z,23456
2018-04-19T06:00:13.675Z,24192
2018-04-19T06:00:54.074Z,24768
2018-04-19T06:01:34.431Z,25536
2018-04-19T06:03:32.464Z,23584
2018-04-19T06:04:13.461Z,24896
2018-04-19T06:04:53.973Z,24960
2018-04-19T06:05:34.393Z,25216
2018-04-19T06:06:14.753Z,26016
2018-04-19T06:06:55.169Z,26400
2018-04-19T06:07:35.549Z,26848
2018-04-19T06:08:16.263Z,27776
2018-04-19T06:08:56.475Z,28640
2018-04-19T06:09:37.052Z,29056
2018-04-19T06:10:17.428Z,29696
2018-04-19T06:10:57.934Z,29728
2018-04-19T06:11:38.337Z,29408
2018-04-19T06:12:18.878Z,28800
2018-04-19T06:12:59.875Z,28608
2018-04-19T06:13:42.526Z,28736
2018-04-19T06:14:23.114Z,28512
2018-04-19T06:15:03.370Z,28512
2018-04-19T06:15:43.980Z,28704
2018-04-19T06:16:24.234Z,29088
2018-04-19T06:17:04.631Z,29312
2018-04-19T06:17:45.076Z,29568
2018-04-19T06:18:25.560Z,29664
2018-04-19T06:19:06.825Z,30336
2018-04-19T06:19:47.569Z,31200
2018-04-19T06:20:28.064Z,31552
2018-04-19T06:21:08.411Z,32320
2018-04-19T06:21:48.821Z,33312
2018-04-19T06:22:29.256Z,35936
2018-04-19T06:23:09.675Z,37184
2018-04-19T06:23:50.145Z,37440
2018-04-19T06:24:31.831Z,35648
2018-04-19T06:25:11.142Z,34144
2018-04-19T06:25:51.533Z,32608
2018-04-19T06:26:31.977Z,31648
2018-04-19T06:27:12.378Z,29792
2018-04-19T06:27:52.770Z,28608
2018-04-19T06:28:33.231Z,26880
2018-04-19T06:29:13.736Z,26144
2018-04-19T06:31:49.862Z,22816
2018-04-19T06:32:30.855Z,21920
2018-04-19T06:33:11.448Z,21248
2018-04-19T06:33:51.733Z,20544
2018-04-19T06:34:32.472Z,20288
2018-04-19T06:35:13.798Z,19936
2018-04-19T06:35:54.076Z,19936
2018-04-19T06:36:34.495Z,19872
2018-04-19T06:37:15.272Z,19744
2018-04-19T06:37:55.686Z,19872
2018-04-19T06:38:36.112Z,19936
2018-04-19T06:39:16.516Z,20288
2018-04-19T06:39:56.991Z,20032
2018-04-19T06:40:38.987Z,20256
2018-04-19T06:43:23.256Z,18784
2018-04-19T06:44:03.865Z,18656
2018-04-19T06:44:44.285Z,18656
2018-04-19T06:45:24.629Z,18112
2018-04-19T06:46:05.074Z,17696
2018-04-19T06:46:46.097Z,17728
2018-04-19T06:47:26.317Z,17792
2018-04-19T06:48:07.667Z,17824
2018-04-19T06:48:48.127Z,18176
2018-04-19T06:49:28.651Z,18176
2018-04-19T06:50:09.250Z,17312
2018-04-19T06:50:49.987Z,16288
2018-04-19T06:51:30.490Z,15520
2018-04-19T06:52:11.011Z,15424
2018-04-19T06:52:51.331Z,15680
2018-04-19T06:53:31.784Z,15936
2018-04-19T06:54:12.452Z,15840
2018-04-19T06:54:52.779Z,15904
2018-04-19T06:55:33.680Z,16064
2018-04-19T06:56:14.150Z,16256
2018-04-19T06:56:54.707Z,16192
2018-04-19T06:57:35.156Z,16064
2018-04-19T06:58:15.936Z,16128
2018-04-19T06:58:56.854Z,16384
2018-04-19T06:59:37.317Z,16480
2018-04-19T07:00:17.698Z,16416
2018-04-19T07:00:58.264Z,16480
2018-04-19T07:01:38.648Z,16160
2018-04-19T07:02:19.068Z,15904
2018-04-19T07:03:00.167Z,15712
2018-04-19T07:03:40.577Z,15648
2018-04-19T07:04:21.039Z,15456
2018-04-19T07:05:01.379Z,15232
2018-04-19T07:05:41.872Z,15040
2018-04-19T07:06:22.243Z,15040
2018-04-19T07:08:46.049Z,15360
2018-04-19T07:09:26.234Z,15776
2018-04-19T07:10:06.959Z,15936
2018-04-19T07:10:48.100Z,14592
2018-04-19T07:11:28.792Z,13088
2018-04-19T07:12:08.437Z,11832
2018-04-19T07:12:48.854Z,11780
2018-04-19T07:13:29.311Z,11752
2018-04-19T07:14:09.692Z,11508
2018-04-19T07:14:50.331Z,11172
2018-04-19T07:15:30.701Z,11240
2018-04-19T07:16:11.090Z,11272
2018-04-19T07:16:52.323Z,11140
2018-04-19T07:17:32.466Z,10916
2018-04-19T07:18:12.916Z,10968
2018-04-19T07:18:53.361Z,11116
2018-04-19T07:19:33.866Z,11464
2018-04-19T07:20:14.302Z,11616
2018-04-19T07:20:54.785Z,11828
2018-04-19T07:21:35.487Z,12188
2018-04-19T07:24:04.144Z,11812
2018-04-19T07:24:44.702Z,10860
2018-04-19T07:25:25.128Z,8760
2018-04-19T07:26:05.510Z,6976
2018-04-19T07:26:46.137Z,6100
2018-04-19T07:27:26.631Z,5788
2018-04-19T07:28:06.996Z,5612
2018-04-19T07:28:47.432Z,5456
2018-04-19T07:29:27.898Z,5328
2018-04-19T07:30:08.323Z,5344
2018-04-19T07:30:49.111Z,5284
2018-04-19T07:31:29.504Z,5208
2018-04-19T07:32:09.907Z,5116
2018-04-19T07:32:50.190Z,5032
2018-04-19T07:33:30.686Z,4948
2018-04-19T07:34:11.158Z,4860
2018-04-19T07:34:51.538Z,4804
2018-04-19T07:35:32.088Z,4752
2018-04-19T07:36:12.446Z,4688
2018-04-19T07:36:53.249Z,4628
2018-04-19T07:37:34.484Z,4608
2018-04-19T07:38:15.310Z,4608
2018-04-19T07:38:55.752Z,4492
2018-04-19T07:39:36.204Z,4308
2018-04-19T07:40:16.745Z,4188
2018-04-19T07:40:57.054Z,4116
2018-04-19T07:41:37.541Z,4116
2018-04-19T07:42:17.893Z,4044
2018-04-19T07:42:58.305Z,3920
2018-04-19T07:43:39.210Z,3784
2018-04-19T07:44:19.459Z,3680
2018-04-19T07:44:59.907Z,3640
2018-04-19T07:45:40.198Z,3580
2018-04-19T07:46:20.604Z,3444
2018-04-19T07:47:01.167Z,3384
2018-04-19T07:47:41.799Z,3304
2018-04-19T07:48:22.463Z,3288
2018-04-19T07:49:02.865Z,3256
2018-04-19T07:49:43.356Z,3224
2018-04-19T07:50:23.722Z,3196
2018-04-19T07:52:44.749Z,3076
2018-04-19T07:53:24.938Z,3048
2018-04-19T07:54:05.382Z,3024
2018-04-19T07:54:45.877Z,2996
2018-04-19T07:55:26.250Z,2956
2018-04-19T07:56:08.001Z,2928
2018-04-19T07:56:48.554Z,2884
2018-04-19T07:57:29.016Z,2856
2018-04-19T07:58:09.358Z,2832
2018-04-19T07:58:53.062Z,2800
2018-04-19T07:59:33.498Z,2772
2018-04-19T08:00:14.062Z,2744
2018-04-19T08:00:54.389Z,2740
2018-04-19T08:01:34.765Z,2676
2018-04-19T08:02:15.207Z,2644
2018-04-19T08:02:56.622Z,2612
2018-04-19T08:03:37.077Z,2604
2018-04-19T08:04:17.593Z,2592
2018-04-19T08:04:58.022Z,2580
2018-04-19T08:05:38.731Z,2556
2018-04-19T08:06:19.169Z,2540
2018-04-19T08:07:01.313Z,2528
2018-04-19T08:07:43.226Z,2512
2018-04-19T08:08:23.670Z,2504
2018-04-19T08:09:04.179Z,2492
2018-04-19T08:09:44.632Z,2476
2018-04-19T08:10:25.196Z,2468
2018-04-19T08:11:05.530Z,2460
2018-04-19T08:11:48.605Z,2448
2018-04-19T08:12:29.676Z,2432
2018-04-19T08:13:10.060Z,2424
2018-04-19T08:13:50.572Z,2412
2018-04-19T08:14:33.975Z,2404
2018-04-19T08:15:14.480Z,2396
2018-04-19T08:15:58.695Z,2388
2018-04-19T08:16:39.013Z,2380
2018-04-19T08:17:19.449Z,2368
2018-04-19T08:18:00.318Z,2360
2018-04-19T08:18:40.691Z,2356
2018-04-19T08:19:21.263Z,2348
2018-04-19T08:20:01.607Z,2344
2018-04-19T08:20:43.778Z,2336
2018-04-19T08:21:25.851Z,2332
2018-04-19T08:22:07.732Z,2324
2018-04-19T08:22:47.695Z,2312
2018-04-19T08:23:29.735Z,2312
2018-04-19T08:24:13.261Z,2312
2018-04-19T08:24:55.327Z,2304
2018-04-19T08:25:35.996Z,2300
2018-04-19T08:26:16.363Z,2300
2018-04-19T08:27:02.697Z,2296
2018-04-19T08:27:43.934Z,2292
2018-04-19T08:28:24.295Z,2284
2018-04-19T08:29:06.682Z,2284
2018-04-19T08:29:47.179Z,2280
2018-04-19T08:30:29.631Z,2276
2018-04-19T08:31:10.209Z,2272
2018-04-19T08:31:51.200Z,2268
2018-04-19T08:32:31.582Z,2264
2018-04-19T08:33:13.685Z,2260
2018-04-19T08:33:57.116Z,2260
2018-04-19T08:34:39.693Z,2252
2018-04-19T08:35:20.136Z,2248
2018-04-19T08:36:01.039Z,2252
2018-04-19T08:36:41.273Z,2244
2018-04-19T08:37:21.893Z,2244
2018-04-19T08:38:02.299Z,2240
2018-04-19T08:38:42.875Z,2240
2018-04-19T08:39:25.056Z,2228
2018-04-19T08:40:05.482Z,2216
2018-04-19T08:40:46.173Z,2200
2018-04-19T08:41:26.736Z,2192
2018-04-19T08:42:07.081Z,2208
2018-04-19T08:42:47.642Z,2216
2018-04-19T08:43:27.989Z,2212
2018-04-19T08:44:08.450Z,2212
2018-04-19T08:44:48.770Z,2208
2018-04-19T08:45:29.172Z,2204
2018-04-19T08:46:09.586Z,2208
2018-04-19T08:46:50.189Z,2200
2018-04-19T08:47:30.579Z,2200
2018-04-19T08:48:11.029Z,2200
2018-04-19T08:48:51.508Z,2200
2018-04-19T08:49:32.007Z,2192
2018-04-19T08:50:12.542Z,2184
2018-04-19T08:50:52.764Z,2184
2018-04-19T08:51:35.347Z,2184
2018-04-19T08:52:17.551Z,2172
2018-04-19T08:52:59.837Z,2172
2018-04-19T08:53:40.200Z,2172
2018-04-19T08:54:21.535Z,2168
2018-04-19T08:55:02.013Z,2164
2018-04-19T08:55:42.612Z,2160
2018-04-19T08:56:22.932Z,2156
2018-04-19T08:57:03.398Z,2156
2018-04-19T08:57:43.985Z,2152
2018-04-19T08:58:24.432Z,2148
2018-04-19T08:59:04.851Z,2148
2018-04-19T08:59:45.376Z,2144
2018-04-19T09:00:25.847Z,2140
2018-04-19T09:01:06.233Z,2136
2018-04-19T09:03:34.471Z,2124
2018-04-19T09:04:14.904Z,2124
2018-04-19T09:04:55.330Z,2120
2018-04-19T09:05:35.773Z,2120
2018-04-19T09:06:17.026Z,2112
2018-04-19T09:06:56.970Z,2108
2018-04-19T09:07:37.529Z,2104
2018-04-19T09:08:17.849Z,2096
2018-04-19T09:08:58.271Z,2096
2018-04-19T09:09:38.656Z,2088
2018-04-19T09:10:19.107Z,2084
2018-04-19T09:10:59.555Z,2084
2018-04-19T09:11:40.046Z,2080
2018-04-19T09:12:20.536Z,2072
2018-04-19T09:13:01.036Z,2068
2018-04-19T09:13:41.763Z,2064
2018-04-19T09:14:22.165Z,2060
2018-04-19T09:15:02.591Z,2056
2018-04-19T09:15:43.777Z,2056
2018-04-19T09:16:23.888Z,2052
2018-04-19T09:17:04.299Z,2048
2018-04-19T09:17:44.685Z,2044
2018-04-19T09:18:25.158Z,2040
2018-04-19T09:19:06.232Z,2040
2018-04-19T09:19:46.851Z,2036
2018-04-19T09:20:27.410Z,2036
2018-04-19T09:21:08.194Z,2032
2018-04-19T09:21:48.565Z,2028
2018-04-19T09:22:28.949Z,2024
2018-04-19T09:23:10.190Z,2012
2018-04-19T09:23:50.636Z,2016
2018-04-19T09:24:31.244Z,2012
2018-04-19T09:25:11.620Z,2004
2018-04-19T09:25:52.221Z,2008
2018-04-19T09:26:32.669Z,2000
2018-04-19T09:27:13.109Z,2004
2018-04-19T09:27:53.635Z,1996
2018-04-19T09:28:34.036Z,1992
2018-04-19T09:29:14.381Z,1996
2018-04-19T09:29:54.835Z,1992
2018-04-19T09:30:35.627Z,1988
2018-04-19T09:31:15.924Z,1988
2018-04-19T09:31:57.113Z,1988
2018-04-19T09:32:37.688Z,1984
2018-04-19T09:33:18.202Z,1980
2018-04-19T09:33:58.535Z,1980
2018-04-19T09:34:39.304Z,1976
2018-04-19T09:35:19.980Z,1968
2018-04-19T09:36:02.649Z,1964
2018-04-19T09:36:43.059Z,1960
2018-04-19T09:37:23.866Z,1952
2018-04-19T09:38:04.491Z,1944
2018-04-19T09:38:45.388Z,1944
2018-04-19T09:39:26.430Z,1936
2018-04-19T09:40:07.086Z,1936
2018-04-19T09:40:47.583Z,1932
2018-04-19T09:41:28.096Z,1928
2018-04-19T09:42:08.589Z,1928
2018-04-19T09:42:49.044Z,1928
2018-04-19T09:43:29.932Z,1920
2018-04-19T09:44:10.409Z,1920
2018-04-19T09:44:50.886Z,1920
2018-04-19T09:45:31.309Z,1920
2018-04-19T09:46:12.280Z,1908
2018-04-19T09:48:30.189Z,1900
2018-04-19T09:49:10.323Z,1896
2018-04-19T09:49:50.756Z,1896
2018-04-19T09:50:31.263Z,1888
2018-04-19T09:51:12.126Z,1900
2018-04-19T09:51:52.522Z,1892
2018-04-19T09:52:32.979Z,1888
2018-04-19T09:53:13.489Z,1880
2018-04-19T09:53:54.359Z,1876
2018-04-19T09:54:34.744Z,1880
2018-04-19T09:55:15.300Z,1872
2018-04-19T09:55:55.834Z,1872
2018-04-19T09:56:36.215Z,1872
2018-04-19T09:57:16.650Z,1864
2018-04-19T09:57:58.132Z,1856
2018-04-19T09:58:39.453Z,1868
2018-04-19T09:59:20.277Z,1860
2018-04-19T10:00:01.638Z,1860
2018-04-19T10:00:42.802Z,1860
2018-04-19T10:01:23.969Z,1860
2018-04-19T10:02:04.869Z,1856
2018-04-19T10:02:45.595Z,1848
2018-04-19T10:45:53.399Z,1692
2018-04-19T10:46:33.244Z,1692
2018-04-19T10:47:14.956Z,1700
2018-04-19T10:47:56.684Z,1688
2018-04-19T10:48:36.806Z,1688
2018-04-19T10:49:17.353Z,1680
2018-04-19T10:49:58.440Z,1688
2018-04-19T10:50:42.457Z,1688
2018-04-19T10:51:24.028Z,1688
2018-04-19T10:52:04.676Z,1688
2018-04-19T10:52:45.099Z,1680
2018-04-19T10:53:25.757Z,1680
2018-04-19T10:54:06.362Z,1660
2018-04-19T10:54:46.861Z,1616
2018-04-19T10:55:27.551Z,1624
2018-04-19T10:56:08.973Z,1640
2018-04-19T10:56:49.652Z,1624
2018-04-19T10:57:30.193Z,1632
2018-04-19T10:58:11.193Z,1592
2018-04-19T10:58:52.567Z,1616
2018-04-19T10:59:38.247Z,1652